createdAt,value
2018-06-29T00:00:24.593Z,81.62
2018-06-29T00:02:54.109Z,81.47
2018-06-29T00:05:23.885Z,80.78
2018-06-29T00:07:53.283Z,81.79
2018-06-29T00:10:26.256Z,82.07
2018-06-29T00:12:56.643Z,81.96
2018-06-29T00:15:26.197Z,80.86
2018-06-29T00:17:55.759Z,81.50
2018-06-29T00:20:25.258Z,80.29
2018-06-29T00:22:54.937Z,80.56
2018-06-29T00:25:24.452Z,80.21
2018-06-29T00:27:54.528Z,79.39
2018-06-29T00:30:24.031Z,78.46
2018-06-29T00:32:53.651Z,77.43
2018-06-29T00:35:23.152Z,77.82
2018-06-29T00:37:52.570Z,76.65
2018-06-29T00:40:22.032Z,76.77
2018-06-29T00:42:51.510Z,77.33
2018-06-29T00:45:20.890Z,76.93
2018-06-29T00:47:50.647Z,77.26
2018-06-29T00:50:20.189Z,77.45
2018-06-29T00:52:49.856Z,77.11
2018-06-29T00:55:19.402Z,76.35
2018-06-29T00:57:48.913Z,76.28
2018-06-29T01:00:18.811Z,76.69
2018-06-29T01:02:48.603Z,77.68
2018-06-29T01:05:18.313Z,77.58
2018-06-29T01:07:47.835Z,77.52
2018-06-29T01:10:17.225Z,78.23
2018-06-29T01:12:46.648Z,78.13
2018-06-29T01:15:16.099Z,78.84
2018-06-29T01:17:45.571Z,78.67
2018-06-29T01:20:15.068Z,78.47
2018-06-29T01:22:44.743Z,79.16
2018-06-29T01:25:14.163Z,77.79
2018-06-29T01:27:43.611Z,77.41
2018-06-29T01:30:13.127Z,78.54
2018-06-29T01:32:42.640Z,78.74
2018-06-29T01:35:12.249Z,78.28
2018-06-29T01:37:41.701Z,79.27
2018-06-29T01:40:11.150Z,78.07
2018-06-29T01:42:40.588Z,78.50
2018-06-29T01:45:10.033Z,78.45
2018-06-29T01:47:39.882Z,78.02
2018-06-29T01:50:09.390Z,79.04
2018-06-29T01:52:38.991Z,79.19
2018-06-29T01:55:09.239Z,80.24
2018-06-29T01:57:39.028Z,79.65
2018-06-29T02:00:08.580Z,80.46
2018-06-29T02:02:38.095Z,80.93
2018-06-29T02:05:07.636Z,81.32
2018-06-29T02:07:37.303Z,81.23
2018-06-29T02:10:07.151Z,80.62
2018-06-29T02:12:37.159Z,81.00
2018-06-29T02:15:07.142Z,80.83
2018-06-29T02:17:37.427Z,81.75
2018-06-29T02:20:07.154Z,82.32
2018-06-29T02:22:36.990Z,82.32
2018-06-29T02:25:06.574Z,82.87
2018-06-29T02:27:36.309Z,83.43
2018-06-29T02:30:06.309Z,83.29
2018-06-29T02:32:35.878Z,83.46
2018-06-29T02:35:05.553Z,83.82
2018-06-29T02:37:35.604Z,83.56
2018-06-29T02:40:05.838Z,83.81
2018-06-29T02:42:35.473Z,84.42
2018-06-29T02:45:05.129Z,83.25
2018-06-29T02:47:34.663Z,83.28
2018-06-29T02:50:04.408Z,83.35
2018-06-29T02:52:34.013Z,81.51
2018-06-29T02:55:03.766Z,81.92
2018-06-29T02:57:33.653Z,81.46
2018-06-29T03:00:03.141Z,81.53
2018-06-29T03:02:32.579Z,80.35
2018-06-29T03:05:02.010Z,80.70
2018-06-29T03:07:31.450Z,80.09
2018-06-29T03:10:00.983Z,80.31
2018-06-29T03:12:30.349Z,79.66
2018-06-29T03:14:59.872Z,79.66
2018-06-29T03:17:29.259Z,79.92
2018-06-29T03:19:58.776Z,79.10
2018-06-29T03:22:28.093Z,78.95
2018-06-29T03:24:57.585Z,78.73
2018-06-29T03:27:27.106Z,78.21
2018-06-29T03:29:56.725Z,77.44
2018-06-29T03:32:26.182Z,78.14
2018-06-29T03:34:55.873Z,77.67
2018-06-29T03:37:25.292Z,77.88
2018-06-29T03:39:55.135Z,77.36
2018-06-29T03:42:24.769Z,78.08
2018-06-29T03:44:54.419Z,77.72
2018-06-29T03:47:24.107Z,77.61
2018-06-29T03:49:53.709Z,77.06
2018-06-29T03:52:23.114Z,76.57
2018-06-29T03:54:52.748Z,76.47
2018-06-29T03:57:22.419Z,77.00
2018-06-29T03:59:52.011Z,76.78
2018-06-29T04:02:21.482Z,75.67
2018-06-29T04:04:51.053Z,75.23
2018-06-29T04:07:20.575Z,75.37
2018-06-29T04:09:49.988Z,75.61
2018-06-29T04:12:19.544Z,75.80
2018-06-29T04:14:49.223Z,75.58
2018-06-29T04:17:18.790Z,74.91
2018-06-29T04:19:48.907Z,74.53
2018-06-29T04:22:18.461Z,75.37
2018-06-29T04:24:47.945Z,74.81
2018-06-29T04:27:17.490Z,75.81
2018-06-29T04:29:47.446Z,74.66
2018-06-29T04:32:16.915Z,75.30
2018-06-29T04:34:46.344Z,75.74
2018-06-29T04:37:16.030Z,75.71
2018-06-29T04:39:45.573Z,75.55
2018-06-29T04:42:15.724Z,76.09
2018-06-29T04:44:45.224Z,75.64
2018-06-29T04:47:14.665Z,75.51
2018-06-29T04:49:44.557Z,75.86
2018-06-29T04:52:14.037Z,74.96
2018-06-29T04:54:43.692Z,74.85
2018-06-29T04:57:13.082Z,74.89
2018-06-29T04:59:42.720Z,74.87
2018-06-29T05:02:12.419Z,74.76
2018-06-29T05:04:42.180Z,74.43
2018-06-29T05:07:11.673Z,74.61
2018-06-29T05:09:41.243Z,73.50
2018-06-29T05:12:10.845Z,74.03
2018-06-29T05:14:40.602Z,74.77
2018-06-29T05:17:10.024Z,75.41
2018-06-29T05:19:39.822Z,75.22
2018-06-29T05:22:09.287Z,76.34
2018-06-29T05:24:38.782Z,77.63
2018-06-29T05:27:08.276Z,77.78
2018-06-29T05:29:37.934Z,77.97
2018-06-29T05:32:07.397Z,78.60
2018-06-29T05:34:37.082Z,79.75
2018-06-29T05:37:06.734Z,78.68
2018-06-29T05:39:36.436Z,78.26
2018-06-29T05:42:06.041Z,80.27
2018-06-29T05:44:35.751Z,79.49
2018-06-29T05:47:05.938Z,79.65
2018-06-29T05:49:35.715Z,79.52
2018-06-29T05:52:05.376Z,79.91
2018-06-29T05:54:34.992Z,79.99
2018-06-29T05:57:04.649Z,78.56
2018-06-29T05:59:34.377Z,78.32
2018-06-29T06:02:04.170Z,77.26
2018-06-29T06:04:33.905Z,77.00
2018-06-29T06:07:03.643Z,76.54
2018-06-29T06:09:33.726Z,76.91
2018-06-29T06:12:03.284Z,77.41
2018-06-29T06:14:32.889Z,77.11
2018-06-29T06:17:02.499Z,76.74
2018-06-29T06:19:42.882Z,76.82
2018-06-29T06:22:12.606Z,77.24
2018-06-29T06:24:42.190Z,76.62
2018-06-29T06:27:11.798Z,76.40
2018-06-29T06:29:41.420Z,74.87
2018-06-29T06:32:11.000Z,73.82
2018-06-29T06:34:40.935Z,74.80
2018-06-29T06:37:10.980Z,75.88
2018-06-29T06:39:40.750Z,74.20
2018-06-29T06:42:10.250Z,73.58
2018-06-29T06:44:39.970Z,74.03
2018-06-29T06:47:09.463Z,72.83
2018-06-29T06:49:39.247Z,73.31
2018-06-29T06:52:08.914Z,72.23
2018-06-29T06:54:38.545Z,71.96
2018-06-29T06:57:08.063Z,72.35
2018-06-29T06:59:37.877Z,73.01
2018-06-29T07:02:07.991Z,72.79
2018-06-29T07:04:37.709Z,73.49
2018-06-29T07:07:07.237Z,73.50
2018-06-29T07:09:37.098Z,74.89
2018-06-29T07:12:06.598Z,73.63
2018-06-29T07:14:36.170Z,74.60
2018-06-29T07:17:05.891Z,71.45
2018-06-29T07:19:35.812Z,72.34
2018-06-29T07:22:05.561Z,73.97
2018-06-29T07:24:35.527Z,73.74
2018-06-29T07:27:05.229Z,71.80
2018-06-29T07:29:34.972Z,72.59
2018-06-29T07:32:04.850Z,72.36
2018-06-29T07:34:34.525Z,72.14
2018-06-29T07:37:04.239Z,73.31
2018-06-29T07:39:33.703Z,71.52
2018-06-29T07:42:03.174Z,70.91
2018-06-29T07:44:33.006Z,70.06
2018-06-29T07:47:02.842Z,71.43
2018-06-29T07:49:32.803Z,71.00
2018-06-29T07:52:02.625Z,69.75
2018-06-29T07:54:32.455Z,69.70
2018-06-29T07:57:02.059Z,70.14
2018-06-29T07:59:31.651Z,69.83
2018-06-29T08:02:01.281Z,69.49
2018-06-29T08:04:30.799Z,68.25
2018-06-29T08:07:00.360Z,68.90
2018-06-29T08:09:30.245Z,70.27
2018-06-29T08:11:59.952Z,68.29
2018-06-29T08:14:30.692Z,66.69
2018-06-29T08:17:00.420Z,67.66
2018-06-29T08:19:31.186Z,67.12
2018-06-29T08:22:00.908Z,67.85
2018-06-29T08:24:32.681Z,67.23
2018-06-29T08:27:02.334Z,67.11
2018-06-29T08:29:33.418Z,67.13
2018-06-29T08:32:03.159Z,68.17
2018-06-29T08:34:32.760Z,67.16
2018-06-29T08:37:02.687Z,67.50
2018-06-29T08:39:32.264Z,66.68
2018-06-29T08:42:01.866Z,66.78
2018-06-29T08:44:31.480Z,67.61
2018-06-29T08:47:01.150Z,67.35
2018-06-29T08:49:30.815Z,67.26
2018-06-29T08:52:00.616Z,66.19
2018-06-29T08:54:30.374Z,66.15
2018-06-29T08:57:00.076Z,66.44
2018-06-29T08:59:30.032Z,66.57
2018-06-29T09:01:59.732Z,67.05
2018-06-29T09:04:29.379Z,65.68
2018-06-29T09:06:59.142Z,64.46
2018-06-29T09:09:28.920Z,63.84
2018-06-29T09:11:59.018Z,63.97
2018-06-29T09:14:28.749Z,63.59
2018-06-29T09:16:58.525Z,63.17
2018-06-29T09:19:28.035Z,62.72
2018-06-29T09:21:57.724Z,64.54
2018-06-29T09:24:27.508Z,64.29
2018-06-29T09:26:57.244Z,63.64
2018-06-29T09:29:27.085Z,64.46
2018-06-29T09:31:56.814Z,65.90
2018-06-29T09:34:26.525Z,64.86
2018-06-29T09:36:56.043Z,63.13
2018-06-29T09:39:25.477Z,63.30
2018-06-29T09:41:55.185Z,64.18
2018-06-29T09:44:24.919Z,64.18
2018-06-29T09:46:54.529Z,65.60
2018-06-29T09:49:24.113Z,60.30
2018-06-29T09:51:53.869Z,58.97
2018-06-29T09:54:23.349Z,60.45
2018-06-29T09:56:53.157Z,60.27
2018-06-29T09:59:22.785Z,60.31
2018-06-29T10:01:52.541Z,59.62
2018-06-29T10:04:22.024Z,61.31
2018-06-29T10:06:51.707Z,60.71
2018-06-29T10:09:21.530Z,60.30
2018-06-29T10:11:52.009Z,59.79
2018-06-29T10:14:21.717Z,59.80
2018-06-29T10:16:51.477Z,62.88
2018-06-29T10:19:21.088Z,65.32
2018-06-29T10:21:50.845Z,65.52
2018-06-29T10:24:20.650Z,61.21
2018-06-29T10:26:50.251Z,63.91
2018-06-29T10:29:19.905Z,62.90
2018-06-29T10:31:49.751Z,63.11
2018-06-29T10:34:19.560Z,63.70
2018-06-29T10:36:49.602Z,63.21
2018-06-29T10:39:19.216Z,64.88
2018-06-29T10:41:48.899Z,58.17
2018-06-29T10:44:18.534Z,59.21
2018-06-29T10:46:48.314Z,61.27
2018-06-29T10:49:17.980Z,56.04
2018-06-29T10:51:47.801Z,57.48
2018-06-29T10:54:17.536Z,51.57
2018-06-29T10:56:47.349Z,51.68
2018-06-29T10:59:17.405Z,56.45
2018-06-29T11:01:47.469Z,53.66
2018-06-29T11:04:16.901Z,52.48
2018-06-29T11:06:46.676Z,54.66
2018-06-29T11:09:16.096Z,58.37
2018-06-29T11:11:45.608Z,48.53
2018-06-29T11:14:15.171Z,54.09
2018-06-29T11:16:45.002Z,50.54
2018-06-29T11:19:14.458Z,48.36
2018-06-29T11:21:44.408Z,52.91
2018-06-29T11:24:14.018Z,56.52
2018-06-29T11:26:43.782Z,53.48
2018-06-29T11:29:13.397Z,53.25
2018-06-29T11:31:43.157Z,52.49
2018-06-29T11:34:12.823Z,54.62
2018-06-29T11:36:42.423Z,48.60
2018-06-29T11:39:14.361Z,52.22
2018-06-29T11:41:44.586Z,53.71
2018-06-29T11:44:14.506Z,50.67
2018-06-29T11:46:44.106Z,53.01
2018-06-29T11:49:13.898Z,49.83
2018-06-29T11:51:43.770Z,50.19
2018-06-29T11:54:13.278Z,52.00
2018-06-29T11:56:43.022Z,50.49
2018-06-29T11:59:12.609Z,54.88
2018-06-29T12:01:42.160Z,52.59
2018-06-29T12:04:11.776Z,55.96
2018-06-29T12:06:41.712Z,52.29
2018-06-29T12:09:12.911Z,56.96
2018-06-29T12:11:43.140Z,56.81
2018-06-29T12:14:12.748Z,58.82
2018-06-29T12:16:42.424Z,54.45
2018-06-29T12:19:12.065Z,55.19
2018-06-29T12:21:41.912Z,54.51
2018-06-29T12:24:11.882Z,55.38
2018-06-29T12:26:41.554Z,53.85
2018-06-29T12:29:11.055Z,56.31
2018-06-29T12:31:40.674Z,54.43
2018-06-29T12:34:10.176Z,55.46
2018-06-29T12:36:39.951Z,56.59
2018-06-29T12:39:09.998Z,55.01
2018-06-29T12:41:40.591Z,58.63
2018-06-29T12:44:10.527Z,58.98
2018-06-29T12:46:39.989Z,61.47
2018-06-29T12:49:09.751Z,59.44
2018-06-29T12:51:39.481Z,62.97
2018-06-29T12:54:08.972Z,59.61
2018-06-29T12:56:38.569Z,61.45
2018-06-29T12:59:08.100Z,61.98
2018-06-29T13:01:37.592Z,58.01
2018-06-29T13:04:07.190Z,56.75
2018-06-29T13:06:36.716Z,55.72
2018-06-29T13:09:10.683Z,52.89
2018-06-29T13:11:40.434Z,51.47
2018-06-29T13:14:09.873Z,52.70
2018-06-29T13:16:39.335Z,58.56
2018-06-29T13:19:10.071Z,60.39
2018-06-29T13:21:39.816Z,52.93
2018-06-29T13:24:09.241Z,49.65
2018-06-29T13:26:38.716Z,48.65
2018-06-29T13:29:08.145Z,49.96
2018-06-29T13:31:37.684Z,50.38
2018-06-29T13:34:07.256Z,49.20
2018-06-29T13:36:36.832Z,48.22
2018-06-29T13:39:09.875Z,47.96
2018-06-29T13:41:39.783Z,48.34
2018-06-29T13:44:09.349Z,50.85
2018-06-29T13:46:38.996Z,47.76
2018-06-29T13:49:08.553Z,46.10
2018-06-29T13:51:38.240Z,47.58
2018-06-29T13:54:07.727Z,47.61
2018-06-29T13:56:37.232Z,48.06
2018-06-29T13:59:06.835Z,46.98
2018-06-29T14:01:36.377Z,52.65
2018-06-29T14:04:06.187Z,48.90
2018-06-29T14:06:35.776Z,48.64
2018-06-29T14:09:07.061Z,47.92
2018-06-29T14:11:36.657Z,47.99
2018-06-29T14:14:06.191Z,47.26
2018-06-29T14:16:35.996Z,46.35
2018-06-29T14:19:05.738Z,46.77
2018-06-29T14:21:35.435Z,49.09
2018-06-29T14:24:04.923Z,47.55
2018-06-29T14:26:34.505Z,48.17
2018-06-29T14:29:04.021Z,46.20
2018-06-29T14:31:33.719Z,45.99
2018-06-29T14:34:03.158Z,50.65
2018-06-29T14:36:32.647Z,45.95
2018-06-29T14:39:02.362Z,46.11
2018-06-29T14:41:32.592Z,44.43
2018-06-29T14:44:02.180Z,43.09
2018-06-29T14:46:32.966Z,44.74
2018-06-29T14:49:02.344Z,43.14
2018-06-29T14:51:33.450Z,42.83
2018-06-29T14:54:03.133Z,41.20
2018-06-29T14:56:33.674Z,41.38
2018-06-29T14:59:03.274Z,41.53
2018-06-29T15:01:32.850Z,42.94
2018-06-29T15:04:02.464Z,44.85
2018-06-29T15:06:31.888Z,42.72
2018-06-29T15:09:01.402Z,43.42
2018-06-29T15:11:30.770Z,46.28
2018-06-29T15:14:00.449Z,42.42
2018-06-29T15:16:30.023Z,42.18
2018-06-29T15:18:59.799Z,38.57
2018-06-29T15:21:29.478Z,39.25
2018-06-29T15:23:59.153Z,37.32
2018-06-29T15:26:28.839Z,34.78
2018-06-29T15:28:58.559Z,34.88
2018-06-29T15:31:28.010Z,34.63
2018-06-29T15:33:57.859Z,33.96
2018-06-29T15:36:27.353Z,32.50
2018-06-29T15:38:56.956Z,32.87
2018-06-29T15:41:26.664Z,32.69
2018-06-29T15:43:56.290Z,31.76
2018-06-29T15:46:25.691Z,32.15
2018-06-29T15:48:55.300Z,31.75
2018-06-29T15:51:24.675Z,30.99
2018-06-29T15:53:54.149Z,31.09
2018-06-29T15:56:23.659Z,30.36
2018-06-29T15:58:53.409Z,31.34
2018-06-29T16:01:22.856Z,31.55
2018-06-29T16:03:52.445Z,32.60
2018-06-29T16:06:22.111Z,30.12
2018-06-29T16:08:51.763Z,29.41
2018-06-29T16:11:21.228Z,30.32
2018-06-29T16:13:51.013Z,32.33
2018-06-29T16:16:20.407Z,32.25
2018-06-29T16:18:49.858Z,32.14
2018-06-29T16:21:19.301Z,30.86
2018-06-29T16:23:49.483Z,32.21
2018-06-29T16:26:18.854Z,31.14
2018-06-29T16:28:51.152Z,33.58
2018-06-29T16:31:20.762Z,31.93
2018-06-29T16:33:50.670Z,32.48
2018-06-29T16:36:20.511Z,32.79
2018-06-29T16:38:50.082Z,36.51
2018-06-29T16:41:19.614Z,35.21
2018-06-29T16:43:49.381Z,36.67
2018-06-29T16:46:18.842Z,37.34
2018-06-29T16:48:48.423Z,41.42
2018-06-29T16:51:18.034Z,41.01
2018-06-29T16:53:47.774Z,41.16
2018-06-29T16:56:17.212Z,47.18
2018-06-29T16:58:46.581Z,46.53
2018-06-29T17:01:16.147Z,44.79
2018-06-29T17:03:45.847Z,47.50
2018-06-29T17:06:15.710Z,49.28
2018-06-29T17:08:45.348Z,50.16
2018-06-29T17:11:14.768Z,50.24
2018-06-29T17:13:47.764Z,51.62
2018-06-29T17:16:17.448Z,54.47
2018-06-29T17:18:47.048Z,54.83
2018-06-29T17:21:16.407Z,55.42
2018-06-29T17:23:46.016Z,54.78
2018-06-29T17:26:15.364Z,58.43
2018-06-29T17:28:45.007Z,58.71
2018-06-29T17:31:14.503Z,58.61
2018-06-29T17:33:44.110Z,57.01
2018-06-29T17:36:13.704Z,56.67
2018-06-29T17:38:56.667Z,58.80
2018-06-29T17:41:26.326Z,60.15
2018-06-29T17:44:04.425Z,59.94
2018-06-29T17:46:34.145Z,60.32
2018-06-29T17:49:03.772Z,58.00
2018-06-29T17:51:33.631Z,58.76
2018-06-29T17:54:05.716Z,58.12
2018-06-29T17:56:36.118Z,60.50
2018-06-29T17:59:06.497Z,58.88
2018-06-29T18:01:36.596Z,59.92
2018-06-29T18:04:06.650Z,60.53
2018-06-29T18:06:37.410Z,61.92
2018-06-29T18:09:09.820Z,62.54
2018-06-29T18:11:40.856Z,61.62
2018-06-29T18:14:13.792Z,62.28
2018-06-29T18:16:43.480Z,62.38
2018-06-29T18:19:13.878Z,63.85
2018-06-29T18:21:43.889Z,62.41
2018-06-29T18:24:13.411Z,63.61
2018-06-29T18:26:43.777Z,64.10
2018-06-29T18:29:13.213Z,65.30
2018-06-29T18:31:42.854Z,67.20
2018-06-29T18:34:12.417Z,67.21
2018-06-29T18:36:43.120Z,67.34
2018-06-29T18:39:15.707Z,67.70
2018-06-29T18:41:46.933Z,68.93
2018-06-29T18:44:16.432Z,68.41
2018-06-29T18:46:48.035Z,68.21
2018-06-29T18:49:17.832Z,69.33
2018-06-29T18:51:50.138Z,69.50
2018-06-29T18:54:20.087Z,68.46
2018-06-29T18:56:50.244Z,69.88
2018-06-29T18:59:19.698Z,70.22
2018-06-29T19:01:49.599Z,69.54
2018-06-29T19:04:20.161Z,69.62
2018-06-29T19:06:49.615Z,70.29
2018-06-29T19:09:19.775Z,70.12
2018-06-29T19:11:49.572Z,70.72
2018-06-29T19:14:22.169Z,72.65
2018-06-29T19:16:52.488Z,71.53
2018-06-29T19:19:28.816Z,72.69
2018-06-29T19:21:59.344Z,71.99
2018-06-29T19:24:28.724Z,71.72
2018-06-29T19:26:58.650Z,71.00
2018-06-29T19:29:29.249Z,72.07
2018-06-29T19:31:59.389Z,71.52
2018-06-29T19:34:28.927Z,70.86
2018-06-29T19:36:59.227Z,70.54
2018-06-29T19:39:30.437Z,71.46
2018-06-29T19:42:04.009Z,71.52
2018-06-29T19:44:33.489Z,72.76
2018-06-29T19:47:03.029Z,72.08
2018-06-29T19:49:37.250Z,73.47
2018-06-29T19:52:08.347Z,71.77
2018-06-29T19:54:37.885Z,71.89
2018-06-29T19:57:07.929Z,72.66
2018-06-29T19:59:37.769Z,74.30
2018-06-29T20:02:08.794Z,74.44
2018-06-29T20:04:38.616Z,74.46
2018-06-29T20:07:08.885Z,74.82
2018-06-29T20:09:38.313Z,75.14
2018-06-29T20:12:08.952Z,74.00
2018-06-29T20:14:38.955Z,74.59
2018-06-29T20:17:09.192Z,74.15
2018-06-29T20:19:38.827Z,74.21
2018-06-29T20:22:09.633Z,75.14
2018-06-29T20:24:39.922Z,74.57
2018-06-29T20:27:10.416Z,75.80
2018-06-29T20:29:40.093Z,75.64
2018-06-29T20:32:09.620Z,76.21
2018-06-29T20:34:38.988Z,75.51
2018-06-29T20:37:08.712Z,76.20
2018-06-29T20:39:38.174Z,77.55
2018-06-29T20:42:08.360Z,77.74
2018-06-29T20:44:37.742Z,77.13
2018-06-29T20:47:07.159Z,77.63
2018-06-29T20:49:36.671Z,77.39
2018-06-29T20:52:06.372Z,76.49
2018-06-29T20:54:36.447Z,75.75
2018-06-29T20:57:06.183Z,76.24
2018-06-29T20:59:36.061Z,75.54
2018-06-29T21:02:05.825Z,76.37
2018-06-29T21:04:35.510Z,76.29
2018-06-29T21:07:05.242Z,76.23
2018-06-29T21:09:34.859Z,77.03
2018-06-29T21:12:04.447Z,77.18
2018-06-29T21:14:33.926Z,78.21
2018-06-29T21:17:03.418Z,78.54
2018-06-29T21:19:32.892Z,78.21
2018-06-29T21:22:02.669Z,78.50
2018-06-29T21:24:32.270Z,78.60
2018-06-29T21:27:02.025Z,78.87
2018-06-29T21:29:31.628Z,78.87
2018-06-29T21:32:01.203Z,77.58
2018-06-29T21:34:30.551Z,76.58
2018-06-29T21:37:00.123Z,76.97
2018-06-29T21:39:29.859Z,76.49
2018-06-29T21:41:59.443Z,77.28
2018-06-29T21:44:29.016Z,78.62
2018-06-29T21:46:58.565Z,78.89
2018-06-29T21:49:28.051Z,78.88
2018-06-29T21:51:57.843Z,78.42
2018-06-29T21:54:27.251Z,78.10
2018-06-29T21:56:56.922Z,77.48
2018-06-29T21:59:26.513Z,77.20
2018-06-29T22:01:56.082Z,77.13
2018-06-29T22:04:25.543Z,76.92
2018-06-29T22:06:55.169Z,77.91
2018-06-29T22:09:24.639Z,78.19
2018-06-29T22:11:54.179Z,77.92
2018-06-29T22:14:23.681Z,78.63
2018-06-29T22:16:53.207Z,78.96
2018-06-29T22:19:22.783Z,79.25
2018-06-29T22:21:52.258Z,79.13
2018-06-29T22:24:21.910Z,79.12
2018-06-29T22:26:51.461Z,79.22
2018-06-29T22:29:20.988Z,79.14
2018-06-29T22:31:50.442Z,79.33
2018-06-29T22:34:19.992Z,79.23
2018-06-29T22:36:49.539Z,78.39
2018-06-29T22:39:18.987Z,77.85
2018-06-29T22:41:48.482Z,78.48
2018-06-29T22:44:17.963Z,78.18
2018-06-29T22:46:47.433Z,77.56
2018-06-29T22:49:16.849Z,77.99
2018-06-29T22:51:46.595Z,77.51
2018-06-29T22:54:15.944Z,76.93
2018-06-29T22:56:45.374Z,76.84
2018-06-29T22:59:14.740Z,77.93
2018-06-29T23:01:44.554Z,77.74
2018-06-29T23:04:17.548Z,77.91
2018-06-29T23:06:48.922Z,78.52
2018-06-29T23:09:18.333Z,78.29
2018-06-29T23:11:48.569Z,79.13
2018-06-29T23:14:17.961Z,79.54
2018-06-29T23:16:49.147Z,79.15
2018-06-29T23:19:18.658Z,79.09
2018-06-29T23:21:50.230Z,79.14
2018-06-29T23:24:19.771Z,78.13
2018-06-29T23:26:49.281Z,79.11
2018-06-29T23:29:18.822Z,79.87
2018-06-29T23:31:48.311Z,80.15
2018-06-29T23:34:17.939Z,80.55
2018-06-29T23:36:47.373Z,79.92
2018-06-29T23:39:16.893Z,79.72
2018-06-29T23:41:46.525Z,80.11
2018-06-29T23:44:15.987Z,79.45
2018-06-29T23:46:45.451Z,79.26
2018-06-29T23:49:14.933Z,79.29
2018-06-29T23:51:44.580Z,80.09
2018-06-29T23:54:14.010Z,79.36
2018-06-29T23:56:43.456Z,79.65
2018-06-29T23:59:12.898Z,80.64
